Time;durP1;ratioP1;P1;durP2;ratioP2;P2;SDS_P1;SDS_P2;PMS_P1;PMS_P2;Temp;Humidity;BMP_temperature;BMP_pressure;BME280_temperature;BME280_humidity;BME280_pressure;Samples;Min_cycle;Max_cycle;Signal;HPM_P1;HPM_P2
2022/08/04 00:02:17;;;;;;;6.90;3.45;;;;;;;;;;4971321;28;20105;-81
2022/08/04 00:04:52;;;;;;;5.82;3.75;;;;;;;;;;4998639;28;20053;-82
2022/08/04 00:07:44;;;;;;;5.75;3.50;;;;;;;;;;4966931;28;20064;-81
2022/08/04 00:10:09;;;;;;;6.45;3.60;;;;;;;;;;4975820;28;20061;-81
2022/08/04 00:12:44;;;;;;;5.90;3.63;;;;;;;;;;4964007;28;20502;-81
2022/08/04 00:15:10;;;;;;;6.25;3.53;;;;;;;;;;4975648;28;20070;-81
2022/08/04 00:17:44;;;;;;;5.87;3.50;;;;;;;;;;4967377;28;20036;-81
2022/08/04 00:20:11;;;;;;;7.50;3.50;;;;;;;;;;4969567;28;20270;-81
2022/08/04 00:22:39;;;;;;;7.55;3.70;;;;;;;;;;4965865;28;20446;-82
2022/08/04 00:25:05;;;;;;;7.63;3.63;;;;;;;;;;4962621;28;20082;-81
2022/08/04 00:27:31;;;;;;;5.93;3.35;;;;;;;;;;4974260;28;20035;-81
2022/08/04 00:29:57;;;;;;;7.20;3.40;;;;;;;;;;4964469;28;20100;-80
2022/08/04 00:32:25;;;;;;;6.30;3.13;;;;;;;;;;4978946;28;20744;-82
2022/08/04 00:34:50;;;;;;;6.35;3.45;;;;;;;;;;4971224;28;20093;-81
2022/08/04 00:37:16;;;;;;;6.28;3.72;;;;;;;;;;4970509;28;20389;-81
2022/08/04 00:39:42;;;;;;;5.97;3.50;;;;;;;;;;4973445;28;20061;-82
2022/08/04 00:42:28;;;;;;;5.45;3.50;;;;;;;;;;4980625;28;20513;-82
2022/08/04 00:45:06;;;;;;;4.95;3.10;;;;;;;;;;4998590;28;20046;-82
2022/08/04 00:48:07;;;;;;;5.57;3.40;;;;;;;;;;4996948;28;21028;-81
2022/08/04 00:50:58;;;;;;;5.28;3.50;;;;;;;;;;4966229;28;20429;-81
2022/08/04 00:53:23;;;;;;;5.60;3.40;;;;;;;;;;4991272;28;20483;-82
2022/08/04 00:56:21;;;;;;;6.13;3.80;;;;;;;;;;4985284;28;20041;-82
2022/08/04 00:59:11;;;;;;;6.65;3.40;;;;;;;;;;4979176;28;20038;-82
2022/08/04 01:01:59;;;;;;;6.90;4.15;;;;;;;;;;4997926;28;20092;-82
2022/08/04 01:05:01;;;;;;;6.28;3.83;;;;;;;;;;4973906;28;20030;-81
2022/08/04 01:07:53;;;;;;;5.35;3.42;;;;;;;;;;4955799;28;20042;-82
2022/08/04 01:10:50;;;;;;;5.22;3.50;;;;;;;;;;4993130;28;20034;-81
2022/08/04 01:13:35;;;;;;;4.68;3.05;;;;;;;;;;4973967;28;20700;-82
2022/08/04 01:16:06;;;;;;;4.72;3.20;;;;;;;;;;4967426;28;20034;-82
2022/08/04 01:18:52;;;;;;;6.10;3.63;;;;;;;;;;4973962;28;20030;-81
2022/08/04 01:21:42;;;;;;;6.97;3.37;;;;;;;;;;4998071;28;20563;-81
2022/08/04 01:24:35;;;;;;;5.95;3.40;;;;;;;;;;4989400;28;20419;-82
2022/08/04 01:27:04;;;;;;;5.18;3.45;;;;;;;;;;4991736;28;20117;-81
2022/08/04 01:29:34;;;;;;;7.10;3.80;;;;;;;;;;5000547;28;20494;-81
2022/08/04 01:32:06;;;;;;;5.97;3.58;;;;;;;;;;4975691;28;20067;-82
2022/08/04 01:34:46;;;;;;;6.28;3.83;;;;;;;;;;4975390;28;20049;-81
2022/08/04 01:37:20;;;;;;;6.55;3.50;;;;;;;;;;4982098;28;20504;-81
2022/08/04 01:39:50;;;;;;;5.53;3.30;;;;;;;;;;4987341;28;20492;-81
2022/08/04 01:42:17;;;;;;;5.55;3.42;;;;;;;;;;4981802;28;20034;-81
2022/08/04 01:44:46;;;;;;;9.57;3.67;;;;;;;;;;5001311;28;20036;-81
2022/08/04 01:47:13;;;;;;;5.70;3.65;;;;;;;;;;4971661;28;20100;-81
2022/08/04 01:49:41;;;;;;;6.13;4.00;;;;;;;;;;4989658;28;20042;-81
2022/08/04 01:52:09;;;;;;;5.18;3.35;;;;;;;;;;4981702;28;20041;-82
2022/08/04 01:54:37;;;;;;;5.47;3.65;;;;;;;;;;4980364;28;20038;-82
2022/08/04 01:57:05;;;;;;;6.60;3.85;;;;;;;;;;4983042;28;20486;-81
2022/08/04 01:59:30;;;;;;;6.13;3.60;;;;;;;;;;4970919;28;20034;-81
2022/08/04 02:01:56;;;;;;;5.28;3.83;;;;;;;;;;4971003;28;20033;-81
2022/08/04 02:04:21;;;;;;;6.18;4.00;;;;;;;;;;4981011;28;20915;-81
2022/08/04 02:06:52;;;;;;;5.45;3.45;;;;;;;;;;4974163;28;20438;-81
2022/08/04 02:09:40;;;;;;;7.55;3.70;;;;;;;;;;4992941;28;20058;-82
2022/08/04 02:12:13;;;;;;;6.55;3.85;;;;;;;;;;4973760;28;20030;-82
2022/08/04 02:14:50;;;;;;;5.65;3.78;;;;;;;;;;4989495;28;20399;-81
2022/08/04 02:17:58;;;;;;;5.90;3.72;;;;;;;;;;4967846;28;20027;-82
2022/08/04 02:20:37;;;;;;;6.43;3.70;;;;;;;;;;4964177;28;20030;-82
2022/08/04 02:23:09;;;;;;;9.25;4.07;;;;;;;;;;4981684;28;20060;-81
2022/08/04 02:25:56;;;;;;;5.57;3.85;;;;;;;;;;4968864;28;20120;-82
2022/08/04 02:28:46;;;;;;;7.07;3.97;;;;;;;;;;4974448;28;20406;-82
2022/08/04 02:31:31;;;;;;;5.72;4.00;;;;;;;;;;4982760;28;20092;-81
2022/08/04 02:34:24;;;;;;;7.50;4.07;;;;;;;;;;4973562;28;20042;-82
2022/08/04 02:36:50;;;;;;;5.90;3.92;;;;;;;;;;4974027;28;20034;-81
2022/08/04 02:39:18;;;;;;;6.10;4.10;;;;;;;;;;4974015;28;20034;-82
2022/08/04 02:41:46;;;;;;;6.70;4.35;;;;;;;;;;4989231;28;20480;-82
2022/08/04 02:44:11;;;;;;;;;;;;;;;;;;4979514;28;20042;-81
2022/08/04 02:46:37;;;;;;;5.93;3.58;;;;;;;;;;4980161;28;19985;-81
2022/08/04 02:49:05;;;;;;;6.38;4.00;;;;;;;;;;4967150;28;20172;-81
2022/08/04 02:51:37;;;;;;;6.85;4.40;;;;;;;;;;4966118;28;20030;-82
2022/08/04 02:54:04;;;;;;;6.57;4.00;;;;;;;;;;4975282;28;20037;-81
2022/08/04 02:56:32;;;;;;;5.45;3.78;;;;;;;;;;4979914;28;20125;-82
2022/08/04 02:59:03;;;;;;;6.10;4.18;;;;;;;;;;4973905;28;20049;-81
2022/08/04 03:01:29;;;;;;;7.07;4.18;;;;;;;;;;4967190;28;20034;-81
2022/08/04 03:04:16;;;;;;;6.15;3.88;;;;;;;;;;4960056;28;20092;-81
2022/08/04 03:07:00;;;;;;;5.60;4.03;;;;;;;;;;4963620;28;20772;-81
2022/08/04 03:10:00;;;;;;;8.50;4.35;;;;;;;;;;4997261;28;20037;-81
2022/08/04 03:12:56;;;;;;;6.55;4.60;;;;;;;;;;4960744;28;20089;-81
2022/08/04 03:15:33;;;;;;;7.03;4.27;;;;;;;;;;4982645;28;20046;-80
2022/08/04 03:18:00;;;;;;;8.38;4.85;;;;;;;;;;4981343;28;20038;-81
2022/08/04 03:20:50;;;;;;;6.60;4.30;;;;;;;;;;4982625;28;20046;-81
2022/08/04 03:23:30;;;;;;;6.63;4.43;;;;;;;;;;4979688;28;20099;-80
2022/08/04 03:26:07;;;;;;;7.68;4.53;;;;;;;;;;4986970;28;20045;-81
2022/08/04 03:28:33;;;;;;;;;;;;;;;;;;4982991;28;20528;-81
2022/08/04 03:31:01;;;;;;;7.47;4.10;;;;;;;;;;4976732;28;19921;-81
2022/08/04 03:33:54;;;;;;;5.57;4.03;;;;;;;;;;4988830;28;20264;-81
2022/08/04 03:36:50;;;;;;;6.13;4.30;;;;;;;;;;4982756;28;20038;-81
2022/08/04 03:39:35;;;;;;;8.63;4.85;;;;;;;;;;4995120;28;20587;-81
2022/08/04 03:42:12;;;;;;;7.32;4.75;;;;;;;;;;4972431;28;20393;-81
2022/08/04 03:45:03;;;;;;;8.52;4.90;;;;;;;;;;4995093;28;20061;-81
2022/08/04 03:47:56;;;;;;;7.28;4.53;;;;;;;;;;4991677;28;20124;-81
2022/08/04 03:50:41;;;;;;;8.65;4.45;;;;;;;;;;4970667;28;20057;-80
2022/08/04 03:53:16;;;;;;;8.55;4.85;;;;;;;;;;4971081;28;20390;-81
2022/08/04 03:56:19;;;;;;;6.20;4.10;;;;;;;;;;4995193;28;20030;-81
2022/08/04 03:59:19;;;;;;;8.75;4.40;;;;;;;;;;4973175;28;20030;-81
2022/08/04 04:02:25;;;;;;;7.65;4.90;;;;;;;;;;4975889;28;20037;-81
2022/08/04 04:05:12;;;;;;;8.88;4.40;;;;;;;;;;4957076;28;20225;-80
2022/08/04 04:07:49;;;;;;;7.28;4.18;;;;;;;;;;4979633;28;20046;-81
2022/08/04 04:10:34;;;;;;;;;;;;;;;;;;4993687;28;20034;-81
2022/08/04 04:13:31;;;;;;;6.70;4.55;;;;;;;;;;4960657;28;19926;-81
2022/08/04 04:16:21;;;;;;;6.22;4.40;;;;;;;;;;4971995;28;20031;-81
2022/08/04 04:19:22;;;;;;;5.70;4.40;;;;;;;;;;4973612;28;20035;-81
2022/08/04 04:22:06;;;;;;;7.45;4.70;;;;;;;;;;4960302;28;20034;-81
2022/08/04 04:24:48;;;;;;;7.40;4.80;;;;;;;;;;4975531;28;20054;-81
2022/08/04 04:27:20;;;;;;;7.75;4.45;;;;;;;;;;4970337;28;20130;-80
2022/08/04 04:30:03;;;;;;;7.40;4.30;;;;;;;;;;4978465;28;20083;-81
2022/08/04 04:32:35;;;;;;;7.05;4.68;;;;;;;;;;4963718;28;20487;-81
2022/08/04 04:35:03;;;;;;;6.05;4.50;;;;;;;;;;4985436;28;20088;-80
2022/08/04 04:37:31;;;;;;;5.80;4.50;;;;;;;;;;4985505;28;20042;-81
2022/08/04 04:40:20;;;;;;;7.28;4.53;;;;;;;;;;4989305;28;20520;-82
2022/08/04 04:43:06;;;;;;;7.30;4.57;;;;;;;;;;4985718;28;20446;-78
2022/08/04 04:46:22;;;;;;;6.32;4.75;;;;;;;;;;4959435;28;20106;-78
2022/08/04 04:48:58;;;;;;;9.68;5.32;;;;;;;;;;4949822;28;20063;-78
2022/08/04 04:51:43;;;;;;;7.45;5.03;;;;;;;;;;4934742;29;20042;-78
2022/08/04 04:54:25;;;;;;;7.85;5.05;;;;;;;;;;4949903;28;20037;-78
2022/08/04 04:57:05;;;;;;;8.10;4.82;;;;;;;;;;4982189;28;20034;-79
2022/08/04 04:59:33;;;;;;;7.40;4.65;;;;;;;;;;4978209;28;20100;-78
2022/08/04 05:02:17;;;;;;;6.78;4.47;;;;;;;;;;4978279;28;20042;-79
2022/08/04 05:05:03;;;;;;;9.13;5.20;;;;;;;;;;4986269;28;20038;-78
2022/08/04 05:07:44;;;;;;;6.60;4.55;;;;;;;;;;4980031;28;20410;-78
2022/08/04 05:10:31;;;;;;;7.80;4.13;;;;;;;;;;4979998;28;20557;-78
2022/08/04 05:12:56;;;;;;;;;;;;;;;;;;4987963;28;20074;-78
2022/08/04 05:15:26;;;;;;;6.97;3.85;;;;;;;;;;4984014;28;20382;-78
2022/08/04 05:17:53;;;;;;;6.55;3.97;;;;;;;;;;4985869;28;20038;-78
2022/08/04 05:20:26;;;;;;;7.78;3.80;;;;;;;;;;4988869;28;20048;-83
2022/08/04 05:22:58;;;;;;;10.85;5.18;;;;;;;;;;4973634;28;20576;-83
2022/08/04 05:25:36;;;;;;;7.07;4.53;;;;;;;;;;4985575;28;20042;-82
2022/08/04 05:28:06;;;;;;;5.95;4.28;;;;;;;;;;4968419;28;20567;-82
2022/08/04 05:30:47;;;;;;;6.00;4.30;;;;;;;;;;4972250;28;20078;-83
2022/08/04 05:33:14;;;;;;;5.80;4.05;;;;;;;;;;4984932;28;20061;-83
2022/08/04 05:35:45;;;;;;;8.98;4.13;;;;;;;;;;4970253;28;20523;-83
2022/08/04 05:38:16;;;;;;;7.53;4.00;;;;;;;;;;4973216;28;20109;-82
2022/08/04 05:40:42;;;;;;;5.63;3.72;;;;;;;;;;4970511;28;20112;-83
2022/08/04 05:43:08;;;;;;;6.97;3.88;;;;;;;;;;4968066;28;20450;-82
2022/08/04 05:45:34;;;;;;;6.57;4.07;;;;;;;;;;4971109;28;25017;-83
2022/08/04 05:48:01;;;;;;;4.80;3.40;;;;;;;;;;4982140;28;20086;-82
2022/08/04 05:50:27;;;;;;;4.88;3.38;;;;;;;;;;4973133;28;20478;-83
2022/08/04 05:52:53;;;;;;;6.05;3.53;;;;;;;;;;4986223;28;20129;-82
2022/08/04 05:55:19;;;;;;;5.22;3.40;;;;;;;;;;4974442;28;20034;-83
2022/08/04 05:57:47;;;;;;;6.28;3.33;;;;;;;;;;4983725;28;20034;-82
2022/08/04 06:00:13;;;;;;;5.88;3.47;;;;;;;;;;4969610;28;20039;-82
2022/08/04 06:02:38;;;;;;;6.28;3.30;;;;;;;;;;4982501;28;20035;-82
2022/08/04 06:05:06;;;;;;;5.82;3.50;;;;;;;;;;4981852;28;20093;-82
2022/08/04 06:07:32;;;;;;;8.45;3.60;;;;;;;;;;4975368;28;20030;-82
2022/08/04 06:09:57;;;;;;;6.40;3.95;;;;;;;;;;4974266;28;20049;-82
2022/08/04 06:12:26;;;;;;;6.32;3.60;;;;;;;;;;4974487;28;20026;-82
2022/08/04 06:14:54;;;;;;;7.28;3.38;;;;;;;;;;4974860;28;20030;-82
2022/08/04 06:17:31;;;;;;;4.30;3.10;;;;;;;;;;4971173;28;20026;-82
2022/08/04 06:19:57;;;;;;;5.50;3.20;;;;;;;;;;4983598;28;20045;-82
2022/08/04 06:22:23;;;;;;;4.90;3.50;;;;;;;;;;4976406;28;20035;-81
2022/08/04 06:24:51;;;;;;;4.00;3.00;;;;;;;;;;4967517;28;20041;-82
2022/08/04 06:27:16;;;;;;;;;;;;;;;;;;4981578;28;20038;-82
2022/08/04 06:29:42;;;;;;;4.90;3.00;;;;;;;;;;4971449;28;19965;-82
2022/08/04 06:32:46;;;;;;;5.20;3.33;;;;;;;;;;4985106;28;20037;-84
2022/08/04 06:35:04;;;;;;;7.47;3.28;;;;;;;;;;4979180;28;20031;-83
2022/08/04 06:37:30;;;;;;;5.93;3.20;;;;;;;;;;4970422;28;20526;-83
2022/08/04 06:39:56;;;;;;;4.75;2.83;;;;;;;;;;4980441;28;20125;-85
2022/08/04 06:42:24;;;;;;;5.82;2.95;;;;;;;;;;4961893;28;20088;-83
2022/08/04 06:44:53;;;;;;;4.63;2.60;;;;;;;;;;4962347;28;20034;-84
2022/08/04 06:47:20;;;;;;;4.72;2.47;;;;;;;;;;4964822;28;20083;-84
2022/08/04 06:49:48;;;;;;;4.82;2.38;;;;;;;;;;4966144;28;20033;-84
2022/08/04 06:52:16;;;;;;;4.50;2.38;;;;;;;;;;4986525;28;20124;-85
2022/08/04 06:54:45;;;;;;;7.20;2.67;;;;;;;;;;4969436;28;20034;-84
2022/08/04 06:57:15;;;;;;;3.45;2.20;;;;;;;;;;4964864;28;20046;-84
2022/08/04 06:59:44;;;;;;;3.42;2.20;;;;;;;;;;4987126;28;20089;-84
2022/08/04 07:02:20;;;;;;;3.67;2.20;;;;;;;;;;4966939;28;20493;-85
2022/08/04 07:04:46;;;;;;;3.55;2.13;;;;;;;;;;4972364;28;20577;-85
2022/08/04 07:07:12;;;;;;;3.25;2.20;;;;;;;;;;4977707;28;20038;-85
2022/08/04 07:09:38;;;;;;;3.67;1.98;;;;;;;;;;4955962;28;20425;-85
2022/08/04 07:12:06;;;;;;;3.83;2.20;;;;;;;;;;4964685;28;20034;-83
2022/08/04 07:14:31;;;;;;;;;;;;;;;;;;4945409;28;20043;-83
2022/08/04 07:16:58;;;;;;;3.95;2.38;;;;;;;;;;4940400;28;20378;-84
2022/08/04 07:19:23;;;;;;;4.53;2.22;;;;;;;;;;4943236;28;20114;-86
2022/08/04 07:21:49;;;;;;;3.80;2.38;;;;;;;;;;4947427;28;20125;-84
2022/08/04 07:24:15;;;;;;;6.20;2.10;;;;;;;;;;4955580;28;20045;-86
2022/08/04 07:26:40;;;;;;;3.38;2.00;;;;;;;;;;4964056;28;20087;-85
2022/08/04 07:29:06;;;;;;;5.72;2.50;;;;;;;;;;4937471;28;20118;-85
2022/08/04 07:31:31;;;;;;;3.55;2.15;;;;;;;;;;4940648;28;20035;-85
2022/08/04 07:33:58;;;;;;;4.65;2.10;;;;;;;;;;4955063;28;20047;-84
2022/08/04 07:36:23;;;;;;;4.10;2.30;;;;;;;;;;4941296;28;20035;-86
2022/08/04 07:38:48;;;;;;;3.53;1.90;;;;;;;;;;4948592;28;20479;-86
2022/08/04 07:41:19;;;;;;;4.32;1.92;;;;;;;;;;4946064;28;20032;-86
2022/08/04 07:43:45;;;;;;;4.00;2.03;;;;;;;;;;4938729;28;20034;-87
2022/08/04 07:46:11;;;;;;;3.22;1.65;;;;;;;;;;4947195;28;20490;-85
2022/08/04 07:48:37;;;;;;;3.92;1.70;;;;;;;;;;4942904;28;20042;-81
2022/08/04 07:51:03;;;;;;;3.30;1.80;;;;;;;;;;4940322;28;20117;-84
2022/08/04 07:53:29;;;;;;;2.75;1.60;;;;;;;;;;4947418;28;20125;-84
2022/08/04 07:55:55;;;;;;;3.40;1.90;;;;;;;;;;4935694;28;20090;-83
2022/08/04 07:58:20;;;;;;;2.85;1.70;;;;;;;;;;4955314;28;20376;-84
2022/08/04 08:00:46;;;;;;;2.80;1.73;;;;;;;;;;4956568;28;20065;-84
2022/08/04 08:03:15;;;;;;;3.63;1.70;;;;;;;;;;4954416;28;20038;-84
2022/08/04 08:05:41;;;;;;;3.70;1.70;;;;;;;;;;4954692;28;20027;-85
2022/08/04 08:08:06;;;;;;;4.30;2.22;;;;;;;;;;4948399;28;20530;-84
2022/08/04 08:10:32;;;;;;;3.53;1.75;;;;;;;;;;4945926;28;20032;-86
2022/08/04 08:12:57;;;;;;;3.03;1.67;;;;;;;;;;4948025;28;20065;-84
2022/08/04 08:15:22;;;;;;;2.67;1.80;;;;;;;;;;4958870;28;20038;-85
2022/08/04 08:17:48;;;;;;;3.90;1.70;;;;;;;;;;4967483;28;20410;-84
2022/08/04 08:20:13;;;;;;;3.63;1.93;;;;;;;;;;4972757;28;20066;-84
2022/08/04 08:22:39;;;;;;;2.80;1.60;;;;;;;;;;4974638;28;20034;-85
2022/08/04 08:25:05;;;;;;;6.13;2.00;;;;;;;;;;4956916;28;20109;-85
2022/08/04 08:27:31;;;;;;;4.32;1.70;;;;;;;;;;4981643;28;20034;-85
2022/08/04 08:29:58;;;;;;;2.97;1.57;;;;;;;;;;4972064;28;20038;-84
2022/08/04 08:32:23;;;;;;;3.75;1.70;;;;;;;;;;4975890;28;20030;-84
2022/08/04 08:34:49;;;;;;;3.93;1.73;;;;;;;;;;4976026;28;20054;-84
2022/08/04 08:37:17;;;;;;;3.50;1.77;;;;;;;;;;4965955;28;20035;-85
2022/08/04 08:40:27;;;;;;;4.68;1.70;;;;;;;;;;4957544;28;20662;-85
2022/08/04 08:43:27;;;;;;;5.10;1.50;;;;;;;;;;4901967;28;20058;-84
2022/08/04 08:47:04;;;;;;;5.03;1.50;;;;;;;;;;4935065;28;20577;-85
2022/08/04 08:50:07;;;;;;;2.78;1.52;;;;;;;;;;4905681;29;20515;-84
2022/08/04 08:52:53;;;;;;;2.85;1.40;;;;;;;;;;4916353;29;20039;-85
2022/08/04 08:55:30;;;;;;;4.25;1.70;;;;;;;;;;4960934;28;20516;-85
2022/08/04 08:57:55;;;;;;;5.03;2.47;;;;;;;;;;4964316;28;20133;-85
2022/08/04 09:00:32;;;;;;;3.30;1.60;;;;;;;;;;4970681;28;20558;-85
2022/08/04 09:03:21;;;;;;;3.03;1.50;;;;;;;;;;4981781;28;20034;-84
2022/08/04 09:06:32;;;;;;;3.08;1.40;;;;;;;;;;4979379;28;20121;-84
2022/08/04 09:09:16;;;;;;;4.13;1.40;;;;;;;;;;4958020;28;20428;-83
2022/08/04 09:11:53;;;;;;;5.13;1.53;;;;;;;;;;4980671;28;20041;-85
2022/08/04 09:14:27;;;;;;;2.53;1.17;;;;;;;;;;4973031;28;20674;-85
2022/08/04 09:17:04;;;;;;;2.50;1.13;;;;;;;;;;4972072;28;20081;-85
2022/08/04 09:19:44;;;;;;;2.60;1.35;;;;;;;;;;4953396;28;20137;-83
2022/08/04 09:22:19;;;;;;;6.75;1.50;;;;;;;;;;4962018;28;20101;-84
2022/08/04 09:25:17;;;;;;;4.43;1.30;;;;;;;;;;4976604;28;20486;-86
2022/08/04 09:27:49;;;;;;;2.55;1.20;;;;;;;;;;4964370;28;20053;-88
2022/08/04 09:30:18;;;;;;;2.30;1.20;;;;;;;;;;4975177;28;20030;-84
2022/08/04 09:33:11;;;;;;;3.63;1.58;;;;;;;;;;4961532;28;20502;-84
2022/08/04 09:35:45;;;;;;;3.38;1.20;;;;;;;;;;4963855;28;20943;-85
2022/08/04 09:38:21;;;;;;;4.25;1.23;;;;;;;;;;4972937;28;20125;-84
2022/08/04 09:41:02;;;;;;;3.13;1.40;;;;;;;;;;4977077;28;20035;-87
2022/08/04 09:43:43;;;;;;;2.78;1.20;;;;;;;;;;4978131;28;20092;-85
2022/08/04 09:46:18;;;;;;;2.70;1.15;;;;;;;;;;4982414;28;20038;-86
2022/08/04 09:48:52;;;;;;;1.70;0.90;;;;;;;;;;4953068;28;20460;-85
2022/08/04 09:52:12;;;;;;;2.05;0.90;;;;;;;;;;4965928;28;20035;-84
2022/08/04 09:54:51;;;;;;;2.20;0.82;;;;;;;;;;4918776;29;20028;-85
2022/08/04 09:57:40;;;;;;;1.60;0.75;;;;;;;;;;4886695;29;20568;-84
2022/08/04 10:00:12;;;;;;;2.05;0.75;;;;;;;;;;4883812;29;20501;-83
2022/08/04 10:02:44;;;;;;;3.60;0.80;;;;;;;;;;4882974;29;20040;-83
2022/08/04 10:05:16;;;;;;;2.25;0.70;;;;;;;;;;4909967;29;20036;-85
2022/08/04 10:07:56;;;;;;;3.05;0.95;;;;;;;;;;4912723;29;20043;-83
2022/08/04 10:10:21;;;;;;;1.73;0.70;;;;;;;;;;4908148;29;20699;-84
2022/08/04 10:13:16;;;;;;;2.30;0.80;;;;;;;;;;4909536;29;20056;-84
2022/08/04 10:15:52;;;;;;;4.07;0.80;;;;;;;;;;4919372;29;20608;-85
2022/08/04 10:19:16;;;;;;;2.08;0.98;;;;;;;;;;4913004;29;20043;-85
2022/08/04 10:21:52;;;;;;;1.63;0.80;;;;;;;;;;4863858;29;20032;-87
2022/08/04 10:24:30;;;;;;;3.97;0.90;;;;;;;;;;4906161;29;20076;-85
2022/08/04 10:27:00;;;;;;;2.20;0.90;;;;;;;;;;4892542;29;20232;-84
2022/08/04 10:29:46;;;;;;;3.90;1.17;;;;;;;;;;4932324;28;20487;-83
2022/08/04 10:32:20;;;;;;;5.75;1.10;;;;;;;;;;4930746;28;20045;-86
2022/08/04 10:35:01;;;;;;;1.50;0.85;;;;;;;;;;4941498;28;20201;-84
2022/08/04 10:37:35;;;;;;;1.60;0.90;;;;;;;;;;4952821;28;20061;-85
2022/08/04 10:40:35;;;;;;;2.55;1.00;;;;;;;;;;4943422;28;20035;-84
2022/08/04 10:43:08;;;;;;;2.25;1.00;;;;;;;;;;4951346;28;20151;-85
2022/08/04 10:46:04;;;;;;;3.13;1.20;;;;;;;;;;4930091;28;20042;-85
2022/08/04 10:48:50;;;;;;;1.88;0.90;;;;;;;;;;4931857;29;20048;-84
2022/08/04 10:51:37;;;;;;;1.92;1.00;;;;;;;;;;4933373;28;20035;-85
2022/08/04 10:54:09;;;;;;;2.17;0.93;;;;;;;;;;4972916;28;20053;-85
2022/08/04 10:57:07;;;;;;;2.40;0.90;;;;;;;;;;4975228;28;20418;-85
2022/08/04 10:59:57;;;;;;;2.65;1.08;;;;;;;;;;4950837;28;20118;-84
2022/08/04 11:02:47;;;;;;;1.80;1.02;;;;;;;;;;4990648;28;20027;-88
2022/08/04 11:05:40;;;;;;;5.88;1.27;;;;;;;;;;4983131;28;20863;-89
2022/08/04 11:08:11;;;;;;;2.40;1.10;;;;;;;;;;4971469;28;20078;-88
2022/08/04 11:10:43;;;;;;;3.05;1.10;;;;;;;;;;4985630;28;20403;-88
2022/08/04 11:13:11;;;;;;;3.15;1.08;;;;;;;;;;4973174;28;20038;-87
2022/08/04 11:15:39;;;;;;;1.98;0.80;;;;;;;;;;4967228;28;20660;-87
2022/08/04 11:18:09;;;;;;;2.08;0.90;;;;;;;;;;4953741;28;20042;-88
2022/08/04 11:20:41;;;;;;;2.00;0.80;;;;;;;;;;4984203;28;20041;-88
2022/08/04 11:23:09;;;;;;;2.60;1.10;;;;;;;;;;4976323;28;20030;-87
2022/08/04 11:26:00;;;;;;;2.45;1.15;;;;;;;;;;4959489;28;20721;-87
2022/08/04 11:29:01;;;;;;;2.47;1.00;;;;;;;;;;4974259;28;20543;-88
2022/08/04 11:31:39;;;;;;;1.90;0.90;;;;;;;;;;4969624;28;20037;-87
2022/08/04 11:34:13;;;;;;;2.03;1.10;;;;;;;;;;4969054;28;20066;-87
2022/08/04 11:36:47;;;;;;;2.13;1.10;;;;;;;;;;4953140;28;20379;-88
2022/08/04 11:39:34;;;;;;;2.30;0.90;;;;;;;;;;4974654;28;20034;-86
2022/08/04 11:42:13;;;;;;;3.45;1.20;;;;;;;;;;4967675;28;20117;-89
2022/08/04 11:45:03;;;;;;;2.55;1.23;;;;;;;;;;4967741;28;20424;-88
2022/08/04 11:47:59;;;;;;;2.42;1.30;;;;;;;;;;4979051;28;20414;-89
2022/08/04 11:50:30;;;;;;;4.10;1.40;;;;;;;;;;4964103;28;20052;-86
2022/08/04 11:53:18;;;;;;;1.92;1.10;;;;;;;;;;4976673;28;20042;-86
2022/08/04 11:55:44;;;;;;;2.58;1.20;;;;;;;;;;4936622;28;20888;-89
2022/08/04 11:58:10;;;;;;;3.03;1.23;;;;;;;;;;4922532;28;20516;-88
2022/08/04 12:00:39;;;;;;;2.63;1.20;;;;;;;;;;4904666;29;20055;-88
2022/08/04 12:03:32;;;;;;;4.90;1.23;;;;;;;;;;4919316;28;20043;-87
2022/08/04 12:06:20;;;;;;;2.08;1.00;;;;;;;;;;4914810;28;20047;-88
2022/08/04 12:09:04;;;;;;;3.38;1.30;;;;;;;;;;4929188;29;20039;-85
2022/08/04 12:11:50;;;;;;;3.70;1.02;;;;;;;;;;4936837;28;20055;-89
2022/08/04 12:14:30;;;;;;;3.22;1.00;;;;;;;;;;4914063;28;20131;-88
2022/08/04 12:17:03;;;;;;;3.55;1.20;;;;;;;;;;4912455;29;20043;-88
2022/08/04 12:19:48;;;;;;;3.05;1.25;;;;;;;;;;4926096;29;20495;-89
2022/08/04 12:22:18;;;;;;;6.20;1.30;;;;;;;;;;4924719;29;20039;-89
2022/08/04 12:24:46;;;;;;;2.42;1.40;;;;;;;;;;4910397;29;20036;-88
2022/08/04 12:27:35;;;;;;;2.83;1.30;;;;;;;;;;4914608;29;20044;-89
2022/08/04 12:30:02;;;;;;;2.80;1.45;;;;;;;;;;4894842;29;20050;-90
2022/08/04 12:32:47;;;;;;;2.40;1.13;;;;;;;;;;4936941;28;20047;-91
2022/08/04 12:35:28;;;;;;;3.60;1.50;;;;;;;;;;4947197;28;20047;-89
2022/08/04 12:38:05;;;;;;;3.38;1.40;;;;;;;;;;4981471;28;20496;-90
2022/08/04 12:40:48;;;;;;;2.35;1.10;;;;;;;;;;4963186;28;20179;-88
2022/08/04 12:43:21;;;;;;;3.28;1.10;;;;;;;;;;4946972;28;20483;-89
2022/08/04 12:45:51;;;;;;;3.53;1.08;;;;;;;;;;4956613;28;20846;-90
2022/08/04 12:48:17;;;;;;;4.68;1.30;;;;;;;;;;4972079;28;20093;-88
2022/08/04 12:50:52;;;;;;;3.90;1.27;;;;;;;;;;4957042;28;20039;-90
2022/08/04 12:53:20;;;;;;;3.10;1.00;;;;;;;;;;4962842;28;20467;-87
2022/08/04 12:55:48;;;;;;;2.35;1.00;;;;;;;;;;4956370;28;20039;-88
2022/08/04 12:58:20;;;;;;;2.20;0.95;;;;;;;;;;4948857;28;20046;-89
2022/08/04 13:00:52;;;;;;;2.15;1.08;;;;;;;;;;4946049;28;20026;-87
2022/08/04 13:03:20;;;;;;;2.70;1.10;;;;;;;;;;4957542;28;20039;-89
2022/08/04 13:05:45;;;;;;;3.53;1.10;;;;;;;;;;4959115;28;20082;-87
2022/08/04 13:08:12;;;;;;;3.33;1.00;;;;;;;;;;4963144;28;20553;-89
2022/08/04 13:10:40;;;;;;;2.28;0.95;;;;;;;;;;4962050;28;20061;-87
2022/08/04 13:13:11;;;;;;;2.13;0.98;;;;;;;;;;4953086;28;20130;-90
2022/08/04 13:15:36;;;;;;;3.78;1.10;;;;;;;;;;4963050;28;20030;-89
2022/08/04 13:18:07;;;;;;;3.07;0.97;;;;;;;;;;4970539;28;20043;-88
2022/08/04 13:20:35;;;;;;;3.72;1.17;;;;;;;;;;4965132;28;20037;-89
2022/08/04 13:23:19;;;;;;;4.45;1.20;;;;;;;;;;4962730;28;20479;-88
2022/08/04 13:25:49;;;;;;;3.00;0.98;;;;;;;;;;4967409;28;20042;-93
2022/08/04 13:28:25;;;;;;;3.28;1.30;;;;;;;;;;4955134;28;20047;-88
2022/08/04 13:30:58;;;;;;;2.97;1.13;;;;;;;;;;4950603;28;20050;-87
2022/08/04 13:33:41;;;;;;;4.28;1.00;;;;;;;;;;4979512;28;20061;-89
2022/08/04 13:36:08;;;;;;;2.40;0.98;;;;;;;;;;4969793;28;20502;-88
2022/08/04 13:38:35;;;;;;;2.05;1.10;;;;;;;;;;4965486;28;20039;-88
2022/08/04 13:41:02;;;;;;;1.88;1.02;;;;;;;;;;4992781;28;20047;-91
2022/08/04 13:43:30;;;;;;;2.70;0.90;;;;;;;;;;4951831;28;20039;-90
2022/08/04 13:46:13;;;;;;;3.50;1.10;;;;;;;;;;4949185;28;20034;-87
2022/08/04 13:48:47;;;;;;;2.20;1.10;;;;;;;;;;4985231;28;20098;-89
2022/08/04 13:51:22;;;;;;;1.77;0.90;;;;;;;;;;4959041;28;20042;-90
2022/08/04 13:53:58;;;;;;;2.10;0.93;;;;;;;;;;4976862;28;20026;-89
2022/08/04 13:56:36;;;;;;;1.85;0.95;;;;;;;;;;4962405;28;20031;-89
2022/08/04 13:59:03;;;;;;;1.80;1.00;;;;;;;;;;4960070;28;20042;-88
2022/08/04 14:01:35;;;;;;;3.35;1.10;;;;;;;;;;4945936;28;20073;-90
2022/08/04 14:04:22;;;;;;;2.60;0.93;;;;;;;;;;4960260;28;20039;-88
2022/08/04 14:06:59;;;;;;;1.98;0.95;;;;;;;;;;4969183;28;20364;-89
2022/08/04 14:09:27;;;;;;;2.35;1.00;;;;;;;;;;4975428;28;20045;-90
2022/08/04 14:11:58;;;;;;;1.63;0.80;;;;;;;;;;4959216;28;20093;-89
2022/08/04 14:14:27;;;;;;;4.13;0.93;;;;;;;;;;4977292;28;20181;-90
2022/08/04 14:17:08;;;;;;;2.00;0.95;;;;;;;;;;4951773;28;20045;-89
2022/08/04 14:19:48;;;;;;;1.80;0.80;;;;;;;;;;4966980;28;20034;-89
2022/08/04 14:22:25;;;;;;;1.65;0.85;;;;;;;;;;4968065;28;20039;-89
2022/08/04 14:25:25;;;;;;;3.10;0.90;;;;;;;;;;4976122;28;20038;-88
2022/08/04 14:27:53;;;;;;;1.85;0.90;;;;;;;;;;4963387;28;20050;-88
2022/08/04 14:30:25;;;;;;;2.97;0.93;;;;;;;;;;4963849;28;20636;-88
2022/08/04 14:32:58;;;;;;;2.30;1.00;;;;;;;;;;4977505;28;20046;-88
2022/08/04 14:35:24;;;;;;;2.08;0.88;;;;;;;;;;4968184;28;20043;-89
2022/08/04 14:37:58;;;;;;;2.83;0.93;;;;;;;;;;4960204;28;20101;-87
2022/08/04 14:40:29;;;;;;;2.00;1.00;;;;;;;;;;4973820;28;20041;-89
2022/08/04 14:42:55;;;;;;;2.60;1.10;;;;;;;;;;4979829;28;20038;-88
2022/08/04 14:45:29;;;;;;;3.55;1.30;;;;;;;;;;4955982;28;20031;-87
2022/08/04 14:47:55;;;;;;;2.38;1.10;;;;;;;;;;4974397;28;20046;-89
2022/08/04 14:50:38;;;;;;;1.97;1.00;;;;;;;;;;4956322;28;20034;-88
2022/08/04 14:53:10;;;;;;;2.85;1.00;;;;;;;;;;4961793;28;20592;-89
2022/08/04 14:55:38;;;;;;;1.90;1.00;;;;;;;;;;4950613;28;20030;-88
2022/08/04 14:58:04;;;;;;;2.53;1.20;;;;;;;;;;4966978;28;20042;-85
2022/08/04 15:00:33;;;;;;;3.83;1.00;;;;;;;;;;4964634;28;20046;-87
2022/08/04 15:03:07;;;;;;;3.25;0.90;;;;;;;;;;4968551;28;20042;-89
2022/08/04 15:05:33;;;;;;;2.40;1.00;;;;;;;;;;4979996;28;20074;-87
2022/08/04 15:07:59;;;;;;;1.83;0.90;;;;;;;;;;4967753;28;20055;-87
2022/08/04 15:10:26;;;;;;;2.42;0.98;;;;;;;;;;4965443;28;20046;-88
2022/08/04 15:12:52;;;;;;;1.90;1.00;;;;;;;;;;4976558;28;20107;-86
2022/08/04 15:15:18;;;;;;;2.40;1.00;;;;;;;;;;4980402;28;20114;-84
2022/08/04 15:17:43;;;;;;;2.92;0.98;;;;;;;;;;4979035;28;20042;-88
2022/08/04 15:20:09;;;;;;;1.92;1.05;;;;;;;;;;4968873;28;20026;-89
2022/08/04 15:22:35;;;;;;;1.88;1.00;;;;;;;;;;4968831;28;20034;-89
2022/08/04 15:25:02;;;;;;;1.90;1.05;;;;;;;;;;4967662;28;20038;-88
2022/08/04 15:27:27;;;;;;;;;;;;;;;;;;4976556;28;20516;-87
2022/08/04 15:29:57;;;;;;;2.97;1.00;;;;;;;;;;4958091;28;19914;-86
2022/08/04 15:32:22;;;;;;;2.10;1.00;;;;;;;;;;4976732;28;20038;-88
2022/08/04 15:34:51;;;;;;;1.70;0.85;;;;;;;;;;4967719;28;20033;-86
2022/08/04 15:37:24;;;;;;;2.88;1.00;;;;;;;;;;4984519;28;20042;-88